sensor_id;sensor_type;location;lat;lon;timestamp;pressure;altitude;pressure_sealevel;temperature;humidity
64876;BME280;51369;49.862;9.908;2023-04-27T00:00:59;98501.22;;;6.13;61.34
64876;BME280;51369;49.862;9.908;2023-04-27T00:03:25;98506.56;;;6.13;60.75
64876;BME280;51369;49.862;9.908;2023-04-27T00:05:50;98493.16;;;6.13;60.33
64876;BME280;51369;49.862;9.908;2023-04-27T00:08:15;98502.97;;;6.14;59.98
64876;BME280;51369;49.862;9.908;2023-04-27T00:10:41;98501.19;;;6.15;60.10
64876;BME280;51369;49.862;9.908;2023-04-27T00:13:06;98502.97;;;6.14;60.03
64876;BME280;51369;49.862;9.908;2023-04-27T00:15:31;98498.50;;;6.15;59.92
64876;BME280;51369;49.862;9.908;2023-04-27T00:17:57;98496.66;;;6.17;60.90
64876;BME280;51369;49.862;9.908;2023-04-27T00:20:22;98493.97;;;6.17;61.07
64876;BME280;51369;49.862;9.908;2023-04-27T00:22:48;98489.53;;;6.16;60.50
64876;BME280;51369;49.862;9.908;2023-04-27T00:25:13;98485.09;;;6.15;59.95
64876;BME280;51369;49.862;9.908;2023-04-27T00:27:39;98485.13;;;6.13;59.53
64876;BME280;51369;49.862;9.908;2023-04-27T00:30:04;98478.03;;;6.11;60.05
64876;BME280;51369;49.862;9.908;2023-04-27T00:32:31;98476.28;;;6.10;59.84
64876;BME280;51369;49.862;9.908;2023-04-27T00:34:56;98481.63;;;6.10;60.94
64876;BME280;51369;49.862;9.908;2023-04-27T00:37:22;98478.97;;;6.10;60.98
64876;BME280;51369;49.862;9.908;2023-04-27T00:39:47;98478.97;;;6.10;61.02
64876;BME280;51369;49.862;9.908;2023-04-27T00:42:13;98484.31;;;6.10;62.09
64876;BME280;51369;49.862;9.908;2023-04-27T00:44:41;98483.44;;;6.09;62.18
64876;BME280;51369;49.862;9.908;2023-04-27T00:47:07;98471.88;;;6.07;62.18
64876;BME280;51369;49.862;9.908;2023-04-27T00:49:34;98474.66;;;6.03;62.31
64876;BME280;51369;49.862;9.908;2023-04-27T00:52:00;98474.72;;;6.00;62.03
64876;BME280;51369;49.862;9.908;2023-04-27T00:54:25;98477.47;;;5.97;62.25
64876;BME280;51369;49.862;9.908;2023-04-27T00:56:52;98478.44;;;5.94;61.48
64876;BME280;51369;49.862;9.908;2023-04-27T00:59:18;98481.16;;;5.91;61.86
64876;BME280;51369;49.862;9.908;2023-04-27T01:01:45;98474.97;;;5.89;62.08
64876;BME280;51369;49.862;9.908;2023-04-27T01:04:11;98483.00;;;5.89;62.06
64876;BME280;51369;49.862;9.908;2023-04-27T01:06:36;98478.53;;;5.90;62.30
64876;BME280;51369;49.862;9.908;2023-04-27T01:09:03;98490.09;;;5.92;62.59
64876;BME280;51369;49.862;9.908;2023-04-27T01:11:29;98480.28;;;5.91;61.99
64876;BME280;51369;49.862;9.908;2023-04-27T01:13:55;98480.31;;;5.89;61.76
64876;BME280;51369;49.862;9.908;2023-04-27T01:16:21;98486.56;;;5.90;61.39
64876;BME280;51369;49.862;9.908;2023-04-27T01:18:46;98480.31;;;5.87;61.41
64876;BME280;51369;49.862;9.908;2023-04-27T01:21:12;98487.50;;;5.85;61.38
64876;BME280;51369;49.862;9.908;2023-04-27T01:23:38;98475.94;;;5.83;61.09
64876;BME280;51369;49.862;9.908;2023-04-27T01:26:03;98490.25;;;5.82;61.32
64876;BME280;51369;49.862;9.908;2023-04-27T01:28:29;98488.50;;;5.81;62.39
64876;BME280;51369;49.862;9.908;2023-04-27T01:30:54;98488.50;;;5.81;62.61
64876;BME280;51369;49.862;9.908;2023-04-27T01:33:20;98485.88;;;5.78;62.54
64876;BME280;51369;49.862;9.908;2023-04-27T01:35:46;98489.47;;;5.77;62.31
64876;BME280;51369;49.862;9.908;2023-04-27T01:38:12;98486.75;;;5.79;63.27
64876;BME280;51369;49.862;9.908;2023-04-27T01:40:37;98479.66;;;5.78;62.95
64876;BME280;51369;49.862;9.908;2023-04-27T01:43:03;98481.50;;;5.74;63.40
64876;BME280;51369;49.862;9.908;2023-04-27T01:45:28;98484.25;;;5.71;63.74
64876;BME280;51369;49.862;9.908;2023-04-27T01:47:54;98482.47;;;5.72;63.73
64876;BME280;51369;49.862;9.908;2023-04-27T01:50:20;98486.03;;;5.72;63.72
64876;BME280;51369;49.862;9.908;2023-04-27T01:52:45;98491.38;;;5.72;63.52
64876;BME280;51369;49.862;9.908;2023-04-27T01:55:11;98483.34;;;5.72;63.54
64876;BME280;51369;49.862;9.908;2023-04-27T01:57:37;98490.53;;;5.70;64.10
64876;BME280;51369;49.862;9.908;2023-04-27T02:00:02;98486.97;;;5.70;63.77
64876;BME280;51369;49.862;9.908;2023-04-27T02:02:45;98492.28;;;5.71;63.46
64876;BME280;51369;49.862;9.908;2023-04-27T02:05:11;98489.63;;;5.71;64.13
64876;BME280;51369;49.862;9.908;2023-04-27T02:07:36;98487.91;;;5.67;63.72
64876;BME280;51369;49.862;9.908;2023-04-27T02:10:02;98486.16;;;5.66;64.16
64876;BME280;51369;49.862;9.908;2023-04-27T02:12:27;98497.75;;;5.67;64.02
64876;BME280;51369;49.862;9.908;2023-04-27T02:14:53;98488.81;;;5.66;64.60
64876;BME280;51369;49.862;9.908;2023-04-27T02:17:18;98495.97;;;5.66;64.73
64876;BME280;51369;49.862;9.908;2023-04-27T02:19:44;98494.22;;;5.65;65.00
64876;BME280;51369;49.862;9.908;2023-04-27T02:22:09;98502.25;;;5.65;64.84
64876;BME280;51369;49.862;9.908;2023-04-27T02:24:35;98498.75;;;5.61;64.42
64876;BME280;51369;49.862;9.908;2023-04-27T02:27:01;98516.69;;;5.57;64.12
64876;BME280;51369;49.862;9.908;2023-04-27T02:29:30;98509.59;;;5.55;64.25
64876;BME280;51369;49.862;9.908;2023-04-27T02:31:55;98511.41;;;5.53;63.25
64876;BME280;51369;49.862;9.908;2023-04-27T02:34:21;98509.72;;;5.49;63.32
64876;BME280;51369;49.862;9.908;2023-04-27T02:36:46;98513.31;;;5.48;62.72
64876;BME280;51369;49.862;9.908;2023-04-27T02:39:11;98507.06;;;5.47;63.24
64876;BME280;51369;49.862;9.908;2023-04-27T02:41:37;98507.94;;;5.48;63.05
64876;BME280;51369;49.862;9.908;2023-04-27T02:44:02;98506.13;;;5.50;62.51
64876;BME280;51369;49.862;9.908;2023-04-27T02:46:29;98511.50;;;5.50;62.51
64876;BME280;51369;49.862;9.908;2023-04-27T02:48:55;98510.56;;;5.51;63.08
64876;BME280;51369;49.862;9.908;2023-04-27T02:51:22;98513.25;;;5.51;63.02
64876;BME280;51369;49.862;9.908;2023-04-27T02:53:47;98507.94;;;5.48;62.40
64876;BME280;51369;49.862;9.908;2023-04-27T02:56:13;98515.06;;;5.49;61.98
64876;BME280;51369;49.862;9.908;2023-04-27T02:58:39;98516.84;;;5.50;61.75
64876;BME280;51369;49.862;9.908;2023-04-27T03:01:04;98514.13;;;5.51;61.35
64876;BME280;51369;49.862;9.908;2023-04-27T03:03:30;98506.06;;;5.53;62.65
64876;BME280;51369;49.862;9.908;2023-04-27T03:05:55;98514.06;;;5.54;62.19
64876;BME280;51369;49.862;9.908;2023-04-27T03:08:21;98515.81;;;5.57;61.68
64876;BME280;51369;49.862;9.908;2023-04-27T03:10:46;98511.28;;;5.59;62.36
64876;BME280;51369;49.862;9.908;2023-04-27T03:13:13;98511.25;;;5.61;61.54
64876;BME280;51369;49.862;9.908;2023-04-27T03:15:38;98516.56;;;5.64;60.91
64876;BME280;51369;49.862;9.908;2023-04-27T03:18:04;98518.28;;;5.66;61.17
64876;BME280;51369;49.862;9.908;2023-04-27T03:20:29;98519.19;;;5.67;61.24
64876;BME280;51369;49.862;9.908;2023-04-27T03:22:55;98514.72;;;5.66;61.95
64876;BME280;51369;49.862;9.908;2023-04-27T03:25:20;98521.88;;;5.65;62.16
64876;BME280;51369;49.862;9.908;2023-04-27T03:27:45;98520.09;;;5.66;62.06
64876;BME280;51369;49.862;9.908;2023-04-27T03:30:11;98515.63;;;5.66;61.69
64876;BME280;51369;49.862;9.908;2023-04-27T03:32:37;98519.19;;;5.67;62.17
64876;BME280;51369;49.862;9.908;2023-04-27T03:35:03;98513.78;;;5.68;62.14
64876;BME280;51369;49.862;9.908;2023-04-27T03:37:29;98526.28;;;5.68;61.81
64876;BME280;51369;49.862;9.908;2023-04-27T03:39:55;98525.41;;;5.67;62.71
64876;BME280;51369;49.862;9.908;2023-04-27T03:42:21;98523.63;;;5.68;63.55
64876;BME280;51369;49.862;9.908;2023-04-27T03:44:46;98524.53;;;5.67;64.12
64876;BME280;51369;49.862;9.908;2023-04-27T03:47:12;98526.31;;;5.66;64.44
64876;BME280;51369;49.862;9.908;2023-04-27T03:49:38;98521.00;;;5.65;64.32
64876;BME280;51369;49.862;9.908;2023-04-27T03:52:05;98518.34;;;5.63;64.83
64876;BME280;51369;49.862;9.908;2023-04-27T03:54:30;98516.66;;;5.59;64.12
64876;BME280;51369;49.862;9.908;2023-04-27T03:56:56;98507.84;;;5.54;64.20
64876;BME280;51369;49.862;9.908;2023-04-27T03:59:22;98518.66;;;5.48;64.50
64876;BME280;51369;49.862;9.908;2023-04-27T04:01:48;98510.75;;;5.42;64.32
64876;BME280;51369;49.862;9.908;2023-04-27T04:04:13;98513.56;;;5.36;64.73
64876;BME280;51369;49.862;9.908;2023-04-27T04:06:40;98511.00;;;5.30;64.77
64876;BME280;51369;49.862;9.908;2023-04-27T04:09:06;98514.69;;;5.24;64.81
64876;BME280;51369;49.862;9.908;2023-04-27T04:11:32;98516.59;;;5.19;65.25
64876;BME280;51369;49.862;9.908;2023-04-27T04:14:00;98518.44;;;5.15;65.12
64876;BME280;51369;49.862;9.908;2023-04-27T04:16:25;98507.81;;;5.11;64.92
64876;BME280;51369;49.862;9.908;2023-04-27T04:18:51;98510.56;;;5.08;64.48
64876;BME280;51369;49.862;9.908;2023-04-27T04:21:17;98513.28;;;5.05;65.39
64876;BME280;51369;49.862;9.908;2023-04-27T04:23:42;98515.09;;;5.03;65.03
64876;BME280;51369;49.862;9.908;2023-04-27T04:26:08;98503.56;;;5.01;64.78
64876;BME280;51369;49.862;9.908;2023-04-27T04:28:35;98519.63;;;4.99;66.18
64876;BME280;51369;49.862;9.908;2023-04-27T04:31:01;98513.47;;;4.96;65.02
64876;BME280;51369;49.862;9.908;2023-04-27T04:33:27;98512.59;;;4.94;65.27
64876;BME280;51369;49.862;9.908;2023-04-27T04:35:54;98507.28;;;4.92;65.77
64876;BME280;51369;49.862;9.908;2023-04-27T04:38:19;98512.63;;;4.92;65.33
64876;BME280;51369;49.862;9.908;2023-04-27T04:40:45;98517.97;;;4.92;65.09
64876;BME280;51369;49.862;9.908;2023-04-27T04:43:10;98525.94;;;4.95;65.89
64876;BME280;51369;49.862;9.908;2023-04-27T04:45:36;98536.53;;;5.01;66.76
64876;BME280;51369;49.862;9.908;2023-04-27T04:48:01;98536.44;;;5.07;66.71
64876;BME280;51369;49.862;9.908;2023-04-27T04:50:27;98545.22;;;5.14;66.61
64876;BME280;51369;49.862;9.908;2023-04-27T04:52:53;98544.25;;;5.19;66.83
64876;BME280;51369;49.862;9.908;2023-04-27T04:55:18;98543.16;;;5.28;66.83
64876;BME280;51369;49.862;9.908;2023-04-27T04:57:44;98542.22;;;5.31;66.04
64876;BME280;51369;49.862;9.908;2023-04-27T05:00:09;98544.78;;;5.37;65.72
64876;BME280;51369;49.862;9.908;2023-04-27T05:02:37;98549.09;;;5.44;66.44
64876;BME280;51369;49.862;9.908;2023-04-27T05:05:03;98548.06;;;5.51;66.34
64876;BME280;51369;49.862;9.908;2023-04-27T05:07:28;98548.78;;;5.59;66.55
64876;BME280;51369;49.862;9.908;2023-04-27T05:09:54;98549.53;;;5.67;66.58
64876;BME280;51369;49.862;9.908;2023-04-27T05:12:19;98544.91;;;5.74;66.07
64876;BME280;51369;49.862;9.908;2023-04-27T05:14:45;98548.34;;;5.80;65.34
64876;BME280;51369;49.862;9.908;2023-04-27T05:17:10;98545.53;;;5.86;65.39
64876;BME280;51369;49.862;9.908;2023-04-27T05:19:36;98555.28;;;5.92;65.08
64876;BME280;51369;49.862;9.908;2023-04-27T05:22:02;98552.53;;;5.95;64.99
64876;BME280;51369;49.862;9.908;2023-04-27T05:24:27;98550.63;;;6.02;65.05
64876;BME280;51369;49.862;9.908;2023-04-27T05:26:53;98554.97;;;6.07;64.94
64876;BME280;51369;49.862;9.908;2023-04-27T05:29:19;98553.91;;;6.14;64.87
64876;BME280;51369;49.862;9.908;2023-04-27T05:31:44;98546.59;;;6.21;64.39
64876;BME280;51369;49.862;9.908;2023-04-27T05:34:09;98548.25;;;6.28;65.43
64876;BME280;51369;49.862;9.908;2023-04-27T05:36:35;98541.81;;;6.35;65.19
64876;BME280;51369;49.862;9.908;2023-04-27T05:39:01;98543.44;;;6.42;65.14
64876;BME280;51369;49.862;9.908;2023-04-27T05:41:28;98549.53;;;6.49;64.77
64876;BME280;51369;49.862;9.908;2023-04-27T05:43:54;98539.50;;;6.57;64.87
64876;BME280;51369;49.862;9.908;2023-04-27T05:46:19;98545.53;;;6.67;64.96
64876;BME280;51369;49.862;9.908;2023-04-27T05:48:45;98539.94;;;6.76;65.42
64876;BME280;51369;49.862;9.908;2023-04-27T05:51:11;98542.34;;;6.87;65.77
64876;BME280;51369;49.862;9.908;2023-04-27T05:53:36;98538.56;;;6.94;65.46
64876;BME280;51369;49.862;9.908;2023-04-27T05:56:01;98553.56;;;7.02;65.43
64876;BME280;51369;49.862;9.908;2023-04-27T05:58:28;98550.63;;;7.11;64.76
64876;BME280;51369;49.862;9.908;2023-04-27T06:00:54;98561.13;;;7.21;64.55
64876;BME280;51369;49.862;9.908;2023-04-27T06:03:20;98551.94;;;7.29;64.72
64876;BME280;51369;49.862;9.908;2023-04-27T06:05:45;98551.66;;;7.40;64.14
64876;BME280;51369;49.862;9.908;2023-04-27T06:08:11;98559.47;;;7.49;64.39
64876;BME280;51369;49.862;9.908;2023-04-27T06:10:37;98561.94;;;7.57;63.88
64876;BME280;51369;49.862;9.908;2023-04-27T06:13:03;98563.50;;;7.65;63.19
64876;BME280;51369;49.862;9.908;2023-04-27T06:15:28;98565.94;;;7.74;62.62
64876;BME280;51369;49.862;9.908;2023-04-27T06:17:54;98568.41;;;7.82;62.51
64876;BME280;51369;49.862;9.908;2023-04-27T06:20:19;98560.06;;;7.91;62.03
64876;BME280;51369;49.862;9.908;2023-04-27T06:22:45;98563.38;;;8.01;62.08
64876;BME280;51369;49.862;9.908;2023-04-27T06:25:11;98564.84;;;8.11;62.37
64876;BME280;51369;49.862;9.908;2023-04-27T06:27:36;98562.72;;;8.22;62.38
64876;BME280;51369;49.862;9.908;2023-04-27T06:30:02;98565.06;;;8.34;62.46
64876;BME280;51369;49.862;9.908;2023-04-27T06:32:27;98560.16;;;8.48;62.23
64876;BME280;51369;49.862;9.908;2023-04-27T06:34:52;98562.41;;;8.62;61.91
64876;BME280;51369;49.862;9.908;2023-04-27T06:37:18;98566.38;;;8.77;61.76
64876;BME280;51369;49.862;9.908;2023-04-27T06:39:43;98569.50;;;8.91;61.43
64876;BME280;51369;49.862;9.908;2023-04-27T06:42:09;98569.94;;;9.05;61.57
64876;BME280;51369;49.862;9.908;2023-04-27T06:44:36;98578.47;;;9.18;60.23
64876;BME280;51369;49.862;9.908;2023-04-27T06:47:01;98575.41;;;9.29;60.87
64876;BME280;51369;49.862;9.908;2023-04-27T06:49:27;98586.72;;;9.40;60.29
64876;BME280;51369;49.862;9.908;2023-04-27T06:51:52;98583.59;;;9.52;60.35
64876;BME280;51369;49.862;9.908;2023-04-27T06:54:17;98574.28;;;9.61;61.25
64876;BME280;51369;49.862;9.908;2023-04-27T06:56:43;98577.59;;;9.69;60.65
64876;BME280;51369;49.862;9.908;2023-04-27T06:59:09;98582.78;;;9.75;60.68
64876;BME280;51369;49.862;9.908;2023-04-27T07:01:35;98587.72;;;9.87;60.12
64876;BME280;51369;49.862;9.908;2023-04-27T07:04:02;98585.22;;;10.06;59.97
64876;BME280;51369;49.862;9.908;2023-04-27T07:06:27;98587.91;;;10.31;60.76
64876;BME280;51369;49.862;9.908;2023-04-27T07:08:53;98585.06;;;10.57;59.04
64876;BME280;51369;49.862;9.908;2023-04-27T07:11:18;98588.47;;;10.84;58.14
64876;BME280;51369;49.862;9.908;2023-04-27T07:13:44;98583.25;;;11.01;56.56
64876;BME280;51369;49.862;9.908;2023-04-27T07:16:09;98582.81;;;11.12;56.58
64876;BME280;51369;49.862;9.908;2023-04-27T07:18:34;98583.44;;;11.19;56.87
64876;BME280;51369;49.862;9.908;2023-04-27T07:21:00;98586.72;;;11.27;55.59
64876;BME280;51369;49.862;9.908;2023-04-27T07:23:26;98586.19;;;11.39;56.27
64876;BME280;51369;49.862;9.908;2023-04-27T07:25:51;98592.63;;;11.57;55.14
64876;BME280;51369;49.862;9.908;2023-04-27T07:28:18;98591.66;;;11.80;54.26
64876;BME280;51369;49.862;9.908;2023-04-27T07:30:43;98591.38;;;12.06;55.28
64876;BME280;51369;49.862;9.908;2023-04-27T07:33:09;98595.28;;;12.38;53.99
64876;BME280;51369;49.862;9.908;2023-04-27T07:35:35;98597.56;;;12.66;52.58
64876;BME280;51369;49.862;9.908;2023-04-27T07:38:01;98593.69;;;12.90;52.77
64876;BME280;51369;49.862;9.908;2023-04-27T07:40:27;98587.06;;;13.15;52.61
64876;BME280;51369;49.862;9.908;2023-04-27T07:42:53;98585.72;;;13.42;51.13
64876;BME280;51369;49.862;9.908;2023-04-27T07:45:19;98582.78;;;13.64;50.22
64876;BME280;51369;49.862;9.908;2023-04-27T07:47:45;98584.53;;;13.82;50.70
64876;BME280;51369;49.862;9.908;2023-04-27T07:50:11;98589.13;;;13.97;50.11
64876;BME280;51369;49.862;9.908;2023-04-27T07:52:41;98584.97;;;14.08;49.56
64876;BME280;51369;49.862;9.908;2023-04-27T07:55:07;98588.22;;;14.14;49.66
64876;BME280;51369;49.862;9.908;2023-04-27T07:57:32;98587.97;;;14.19;49.40
64876;BME280;51369;49.862;9.908;2023-04-27T07:59:58;98586.06;;;14.21;48.45
64876;BME280;51369;49.862;9.908;2023-04-27T08:02:25;98577.81;;;14.22;49.06
64876;BME280;51369;49.862;9.908;2023-04-27T08:04:54;98582.91;;;14.28;48.96
64876;BME280;51369;49.862;9.908;2023-04-27T08:07:20;98580.66;;;14.37;48.44
64876;BME280;51369;49.862;9.908;2023-04-27T08:09:45;98568.63;;;14.42;48.87
64876;BME280;51369;49.862;9.908;2023-04-27T08:12:11;98575.72;;;14.45;48.22
64876;BME280;51369;49.862;9.908;2023-04-27T08:14:36;98572.03;;;14.46;48.23
64876;BME280;51369;49.862;9.908;2023-04-27T08:17:01;98581.00;;;14.48;49.35
64876;BME280;51369;49.862;9.908;2023-04-27T08:19:27;98578.97;;;14.51;48.76
64876;BME280;51369;49.862;9.908;2023-04-27T08:21:52;98587.13;;;14.51;48.50
64876;BME280;51369;49.862;9.908;2023-04-27T08:24:17;98582.56;;;14.52;48.63
64876;BME280;51369;49.862;9.908;2023-04-27T08:26:45;98585.28;;;14.52;48.58
64876;BME280;51369;49.862;9.908;2023-04-27T08:29:10;98587.84;;;14.55;48.77
64876;BME280;51369;49.862;9.908;2023-04-27T08:31:35;98587.59;;;14.59;48.39
64876;BME280;51369;49.862;9.908;2023-04-27T08:34:01;98591.81;;;14.65;48.10
64876;BME280;51369;49.862;9.908;2023-04-27T08:36:26;98588.81;;;14.70;48.21
64876;BME280;51369;49.862;9.908;2023-04-27T08:38:53;98577.69;;;14.74;47.72
64876;BME280;51369;49.862;9.908;2023-04-27T08:41:22;98574.72;;;14.79;47.99
64876;BME280;51369;49.862;9.908;2023-04-27T08:43:49;98573.50;;;14.84;46.87
64876;BME280;51369;49.862;9.908;2023-04-27T08:46:19;98573.31;;;14.87;47.01
64876;BME280;51369;49.862;9.908;2023-04-27T08:48:46;98568.50;;;14.92;46.79
64876;BME280;51369;49.862;9.908;2023-04-27T08:51:14;98554.47;;;15.00;47.30
64876;BME280;51369;49.862;9.908;2023-04-27T08:53:47;98562.34;;;15.05;47.27
64876;BME280;51369;49.862;9.908;2023-04-27T08:56:13;98555.69;;;15.10;47.03
64876;BME280;51369;49.862;9.908;2023-04-27T08:58:38;98560.84;;;15.15;46.37
64876;BME280;51369;49.862;9.908;2023-04-27T09:01:07;98558.84;;;15.18;46.00
64876;BME280;51369;49.862;9.908;2023-04-27T09:03:34;98558.28;;;15.27;46.71
64876;BME280;51369;49.862;9.908;2023-04-27T09:06:00;98554.34;;;15.33;46.25
64876;BME280;51369;49.862;9.908;2023-04-27T09:08:26;98554.94;;;15.38;46.19
64876;BME280;51369;49.862;9.908;2023-04-27T09:10:52;98556.78;;;15.38;45.79
64876;BME280;51369;49.862;9.908;2023-04-27T09:13:19;98550.19;;;15.42;46.20
64876;BME280;51369;49.862;9.908;2023-04-27T09:15:46;98557.81;;;15.51;45.95
64876;BME280;51369;49.862;9.908;2023-04-27T09:18:21;98552.69;;;15.60;46.08
64876;BME280;51369;49.862;9.908;2023-04-27T09:20:48;98549.41;;;15.70;45.12
64876;BME280;51369;49.862;9.908;2023-04-27T09:23:35;98554.72;;;15.87;44.83
64876;BME280;51369;49.862;9.908;2023-04-27T09:26:03;98548.91;;;16.07;44.56
64876;BME280;51369;49.862;9.908;2023-04-27T09:28:34;98546.00;;;16.24;45.10
64876;BME280;51369;49.862;9.908;2023-04-27T09:31:03;98552.63;;;16.49;45.02
64876;BME280;51369;49.862;9.908;2023-04-27T09:33:34;98545.53;;;16.75;44.00
64876;BME280;51369;49.862;9.908;2023-04-27T09:36:02;98538.47;;;16.99;44.52
64876;BME280;51369;49.862;9.908;2023-04-27T09:38:28;98542.50;;;17.20;44.28
64876;BME280;51369;49.862;9.908;2023-04-27T09:40:54;98544.94;;;17.38;43.26
64876;BME280;51369;49.862;9.908;2023-04-27T09:43:19;98543.81;;;17.54;42.29
64876;BME280;51369;49.862;9.908;2023-04-27T09:45:47;98536.56;;;17.68;42.71
64876;BME280;51369;49.862;9.908;2023-04-27T09:48:12;98547.41;;;17.82;42.29
64876;BME280;51369;49.862;9.908;2023-04-27T09:50:40;98540.97;;;17.96;41.68
64876;BME280;51369;49.862;9.908;2023-04-27T09:53:08;98539.91;;;18.11;41.83
64876;BME280;51369;49.862;9.908;2023-04-27T10:01:00;98526.97;;;18.76;39.96
64876;BME280;51369;49.862;9.908;2023-04-27T10:03:46;98518.69;;;19.02;39.56
64876;BME280;51369;49.862;9.908;2023-04-27T10:06:38;98523.50;;;19.22;39.73
64876;BME280;51369;49.862;9.908;2023-04-27T10:09:11;98520.59;;;19.36;39.07
64876;BME280;51369;49.862;9.908;2023-04-27T10:11:41;98519.25;;;19.42;40.00
64876;BME280;51369;49.862;9.908;2023-04-27T10:14:10;98514.19;;;19.48;37.95
64876;BME280;51369;49.862;9.908;2023-04-27T10:16:46;98517.88;;;19.60;38.84
64876;BME280;51369;49.862;9.908;2023-04-27T10:19:12;98518.56;;;19.75;38.85
64876;BME280;51369;49.862;9.908;2023-04-27T10:22:07;98523.84;;;19.89;38.97
64876;BME280;51369;49.862;9.908;2023-04-27T10:24:38;98513.81;;;20.12;38.58
64876;BME280;51369;49.862;9.908;2023-04-27T10:27:06;98508.09;;;20.26;38.54
64876;BME280;51369;49.862;9.908;2023-04-27T10:29:39;98511.63;;;20.39;37.67
64876;BME280;51369;49.862;9.908;2023-04-27T10:32:23;98506.78;;;20.43;37.10
64876;BME280;51369;49.862;9.908;2023-04-27T10:34:50;98503.28;;;20.52;37.05
64876;BME280;51369;49.862;9.908;2023-04-27T10:37:17;98516.13;;;20.63;38.28
64876;BME280;51369;49.862;9.908;2023-04-27T10:39:45;98503.28;;;20.74;37.28
64876;BME280;51369;49.862;9.908;2023-04-27T10:42:10;98502.25;;;20.87;37.05
64876;BME280;51369;49.862;9.908;2023-04-27T10:44:37;98493.72;;;21.01;36.97
64876;BME280;51369;49.862;9.908;2023-04-27T10:47:15;98503.94;;;21.10;36.36
64876;BME280;51369;49.862;9.908;2023-04-27T10:49:41;98504.19;;;21.18;36.23
64876;BME280;51369;49.862;9.908;2023-04-27T10:52:07;98492.72;;;21.24;37.35
64876;BME280;51369;49.862;9.908;2023-04-27T10:54:33;98496.91;;;21.39;37.32
64876;BME280;51369;49.862;9.908;2023-04-27T10:57:07;98499.88;;;21.48;35.59
64876;BME280;51369;49.862;9.908;2023-04-27T10:59:35;98501.34;;;21.52;35.43
64876;BME280;51369;49.862;9.908;2023-04-27T11:02:11;98497.81;;;21.61;36.29
64876;BME280;51369;49.862;9.908;2023-04-27T11:04:37;98503.28;;;21.72;36.00
64876;BME280;51369;49.862;9.908;2023-04-27T11:07:03;98500.72;;;21.80;35.98
64876;BME280;51369;49.862;9.908;2023-04-27T11:09:29;98508.44;;;21.86;35.75
64876;BME280;51369;49.862;9.908;2023-04-27T11:11:55;98504.56;;;21.89;35.07
64876;BME280;51369;49.862;9.908;2023-04-27T11:14:20;98493.09;;;21.84;33.40
64876;BME280;51369;49.862;9.908;2023-04-27T11:16:47;98498.72;;;21.82;34.83
64876;BME280;51369;49.862;9.908;2023-04-27T11:19:13;98492.81;;;21.87;35.52
64876;BME280;51369;49.862;9.908;2023-04-27T11:21:38;98491.03;;;21.97;35.82
64876;BME280;51369;49.862;9.908;2023-04-27T11:24:05;98487.38;;;22.07;35.34
64876;BME280;51369;49.862;9.908;2023-04-27T11:26:31;98497.09;;;22.12;34.61
64876;BME280;51369;49.862;9.908;2023-04-27T11:29:04;98491.72;;;22.10;35.56
64876;BME280;51369;49.862;9.908;2023-04-27T11:31:46;98493.59;;;22.10;35.33
64876;BME280;51369;49.862;9.908;2023-04-27T11:34:18;98507.00;;;22.03;34.76
64876;BME280;51369;49.862;9.908;2023-04-27T11:36:43;98501.53;;;21.92;35.82
64876;BME280;51369;49.862;9.908;2023-04-27T11:39:16;98500.38;;;21.73;35.63
64876;BME280;51369;49.862;9.908;2023-04-27T11:41:45;98489.09;;;21.56;36.07
64876;BME280;51369;49.862;9.908;2023-04-27T11:44:11;98486.66;;;21.41;36.09
64876;BME280;51369;49.862;9.908;2023-04-27T11:46:38;98486.69;;;21.30;34.81
64876;BME280;51369;49.862;9.908;2023-04-27T11:49:05;98480.59;;;21.27;35.57
64876;BME280;51369;49.862;9.908;2023-04-27T11:51:32;98478.25;;;21.22;35.15
64876;BME280;51369;49.862;9.908;2023-04-27T11:54:05;98474.34;;;21.25;36.13
64876;BME280;51369;49.862;9.908;2023-04-27T11:56:41;98471.09;;;21.31;36.03
64876;BME280;51369;49.862;9.908;2023-04-27T11:59:20;98476.53;;;21.42;36.12
64876;BME280;51369;49.862;9.908;2023-04-27T12:01:45;98467.00;;;21.57;35.43
64876;BME280;51369;49.862;9.908;2023-04-27T12:04:11;98467.53;;;21.72;35.25
64876;BME280;51369;49.862;9.908;2023-04-27T12:06:36;98476.59;;;21.84;34.85
64876;BME280;51369;49.862;9.908;2023-04-27T12:09:02;98467.06;;;21.88;33.89
64876;BME280;51369;49.862;9.908;2023-04-27T12:11:29;98472.44;;;21.89;35.21
64876;BME280;51369;49.862;9.908;2023-04-27T12:13:55;98473.91;;;21.93;37.61
64876;BME280;51369;49.862;9.908;2023-04-27T12:16:21;98472.91;;;21.94;38.22
64876;BME280;51369;49.862;9.908;2023-04-27T12:18:48;98479.09;;;21.87;35.92
64876;BME280;51369;49.862;9.908;2023-04-27T12:21:13;98473.16;;;21.70;34.66
64876;BME280;51369;49.862;9.908;2023-04-27T12:23:39;98458.28;;;21.52;35.21
64876;BME280;51369;49.862;9.908;2023-04-27T12:26:05;98460.72;;;21.34;36.07
64876;BME280;51369;49.862;9.908;2023-04-27T12:28:30;98463.63;;;21.22;34.58
64876;BME280;51369;49.862;9.908;2023-04-27T12:30:56;98463.38;;;21.13;35.88
64876;BME280;51369;49.862;9.908;2023-04-27T12:33:22;98455.03;;;21.04;35.19
64876;BME280;51369;49.862;9.908;2023-04-27T12:35:47;98461.41;;;21.04;35.36
64876;BME280;51369;49.862;9.908;2023-04-27T12:38:12;98461.38;;;21.16;35.48
64876;BME280;51369;49.862;9.908;2023-04-27T12:40:38;98465.88;;;21.28;37.77
64876;BME280;51369;49.862;9.908;2023-04-27T12:43:03;98457.94;;;21.46;38.23
64876;BME280;51369;49.862;9.908;2023-04-27T12:45:28;98463.06;;;21.71;38.04
64876;BME280;51369;49.862;9.908;2023-04-27T12:47:54;98452.81;;;21.94;37.41
64876;BME280;51369;49.862;9.908;2023-04-27T12:50:19;98448.91;;;22.17;37.50
64876;BME280;51369;49.862;9.908;2023-04-27T12:52:46;98450.16;;;22.34;35.22
64876;BME280;51369;49.862;9.908;2023-04-27T12:55:12;98441.28;;;22.51;34.66
64876;BME280;51369;49.862;9.908;2023-04-27T12:57:37;98438.38;;;22.62;34.51
64876;BME280;51369;49.862;9.908;2023-04-27T13:00:03;98438.38;;;22.53;33.55
64876;BME280;51369;49.862;9.908;2023-04-27T13:02:32;98450.84;;;22.26;34.17
64876;BME280;51369;49.862;9.908;2023-04-27T13:04:58;98446.75;;;22.00;34.19
64876;BME280;51369;49.862;9.908;2023-04-27T13:07:24;98449.72;;;21.87;34.93